Time;durP1;ratioP1;P1;durP2;ratioP2;P2;SDS_P1;SDS_P2;PMS_P1;PMS_P2;Temp;Humidity;BMP_temperature;BMP_pressure;BME280_temperature;BME280_humidity;BME280_pressure;Samples;Min_cycle;Max_cycle;Signal;HPM_P1;HPM_P2
2021/10/21 07:16:50;;;;;;;2.10;0.57;;;11.10;99.90;;;;;;3189886;23;20255;-72
2021/10/21 07:19:17;;;;;;;1.00;0.40;;;11.00;99.90;;;;;;4954496;29;20246;-77
2021/10/21 07:21:44;;;;;;;4.37;1.00;;;11.10;99.90;;;;;;4956237;29;20243;-76
2021/10/21 07:24:11;;;;;;;5.27;1.17;;;11.00;99.90;;;;;;4956397;28;20270;-77
2021/10/21 07:26:38;;;;;;;2.33;0.43;;;11.10;99.90;;;;;;4956035;29;20207;-78
2021/10/21 07:29:04;;;;;;;3.70;0.40;;;11.20;99.90;;;;;;4955899;29;20215;-78
2021/10/21 07:31:31;;;;;;;5.10;0.63;;;11.20;99.90;;;;;;4956079;29;20208;-77
2021/10/21 07:33:59;;;;;;;2.90;0.53;;;11.30;99.90;;;;;;4956003;28;20235;-79
2021/10/21 07:36:26;;;;;;;4.33;0.60;;;11.50;99.90;;;;;;4956092;29;20212;-78
2021/10/21 07:38:53;;;;;;;0.33;0.30;;;11.50;99.90;;;;;;4956167;29;20208;-77
2021/10/21 07:41:21;;;;;;;4.17;0.50;;;11.60;99.90;;;;;;4956418;29;20228;-76
2021/10/21 07:43:48;;;;;;;3.40;0.50;;;11.80;99.90;;;;;;4955874;28;20236;-77
2021/10/21 07:46:15;;;;;;;2.10;0.50;;;11.90;99.90;;;;;;4956030;29;20214;-77
2021/10/21 07:48:42;;;;;;;2.80;0.60;;;11.80;99.90;;;;;;4955951;29;20207;-78
2021/10/21 07:51:10;;;;;;;4.27;0.50;;;11.70;99.90;;;;;;4955869;29;20262;-77
2021/10/21 07:53:37;;;;;;;2.73;0.50;;;11.90;99.90;;;;;;4955877;28;20299;-78
2021/10/21 07:56:04;;;;;;;2.10;0.40;;;12.20;99.90;;;;;;4955868;28;20208;-77
2021/10/21 07:58:31;;;;;;;1.57;0.40;;;12.20;99.90;;;;;;4955414;29;20218;-77
2021/10/21 08:00:58;;;;;;;2.03;0.40;;;12.50;99.90;;;;;;4955667;29;20218;-77
2021/10/21 08:03:25;;;;;;;3.73;0.60;;;12.40;99.90;;;;;;4955454;28;20200;-72
2021/10/21 08:05:51;;;;;;;3.57;0.50;;;12.40;99.90;;;;;;4955619;29;20299;-77
2021/10/21 08:08:20;;;;;;;3.40;0.87;;;12.50;99.90;;;;;;4955662;29;20578;-76
2021/10/21 08:10:47;;;;;;;2.70;0.40;;;12.70;99.90;;;;;;4955644;29;20234;-77
2021/10/21 08:13:15;;;;;;;2.10;0.50;;;12.90;99.90;;;;;;4955456;29;20634;-77
2021/10/21 08:15:42;;;;;;;3.87;0.70;;;13.20;99.90;;;;;;4954846;28;20282;-77
2021/10/21 08:18:13;;;;;;;1.13;0.33;;;13.40;99.90;;;;;;4955470;29;20220;-77
2021/10/21 08:20:40;;;;;;;5.33;0.50;;;13.60;99.90;;;;;;4955797;29;20215;-75
2021/10/21 08:23:07;;;;;;;0.93;0.40;;;13.70;99.90;;;;;;4955726;29;20242;-76
2021/10/21 08:25:35;;;;;;;2.53;0.30;;;13.80;99.90;;;;;;4955277;28;20233;-75
2021/10/21 08:28:02;;;;;;;2.83;0.70;;;13.80;99.90;;;;;;4955204;29;20208;-76
2021/10/21 08:30:31;;;;;;;1.20;0.50;;;13.90;99.90;;;;;;4955374;29;20226;-76
2021/10/21 08:32:59;;;;;;;3.23;0.30;;;13.90;99.90;;;;;;4955157;29;20203;-76
2021/10/21 08:35:29;;;;;;;2.77;0.60;;;14.10;99.90;;;;;;4955136;28;20235;-75
2021/10/21 08:37:57;;;;;;;1.23;0.40;;;14.30;99.90;;;;;;4955213;29;20216;-76
2021/10/21 08:40:24;;;;;;;1.73;0.30;;;14.70;99.90;;;;;;4955777;29;20238;-76
2021/10/21 08:42:53;;;;;;;5.43;0.53;;;14.50;99.90;;;;;;4936552;29;20267;-75
2021/10/21 08:45:20;;;;;;;1.27;0.60;;;14.30;99.90;;;;;;4934434;29;20229;-75
2021/10/21 08:47:50;;;;;;;1.47;0.40;;;14.20;99.90;;;;;;4934906;29;20211;-73
2021/10/21 08:50:18;;;;;;;2.10;0.40;;;13.80;99.90;;;;;;4934615;29;20244;-72
2021/10/21 08:52:46;;;;;;;2.77;0.40;;;13.50;99.90;;;;;;4950643;29;20671;-73
2021/10/21 08:55:14;;;;;;;2.03;0.73;;;13.40;99.90;;;;;;4953716;28;20224;-77
2021/10/21 08:57:41;;;;;;;3.20;0.60;;;13.30;99.90;;;;;;4945833;29;20208;-72
2021/10/21 09:00:12;;;;;;;3.83;0.80;;;13.10;99.90;;;;;;4934645;29;20295;-75
2021/10/21 09:02:46;;;;;;;6.10;0.87;;;13.10;99.90;;;;;;4935287;29;20319;-71
2021/10/21 09:05:19;;;;;;;3.43;0.60;;;12.90;99.90;;;;;;4935437;29;20801;-69
2021/10/21 09:07:58;;;;;;;4.07;1.30;;;12.90;99.90;;;;;;4935825;29;20212;-72
2021/10/21 09:10:26;;;;;;;1.90;0.40;;;13.10;99.90;;;;;;4935535;29;20243;-70
2021/10/21 09:12:53;;;;;;;3.93;1.20;;;13.00;99.90;;;;;;4935663;29;20300;-71
2021/10/21 09:15:23;;;;;;;4.70;0.73;;;13.10;99.90;;;;;;4935486;29;20247;-72
2021/10/21 09:17:51;;;;;;;2.57;0.57;;;13.20;99.90;;;;;;4935649;29;20258;-71
2021/10/21 09:20:30;;;;;;;1.80;0.30;;;13.50;99.90;;;;;;4935466;29;20734;-72
2021/10/21 09:22:59;;;;;;;2.90;0.40;;;13.70;99.90;;;;;;4935566;29;20236;-71
2021/10/21 09:25:29;;;;;;;5.90;0.50;;;13.90;99.90;;;;;;4935259;29;20643;-72
2021/10/21 09:27:58;;;;;;;2.13;0.40;;;14.00;99.90;;;;;;4936753;29;20213;-72
2021/10/21 09:30:28;;;;;;;4.13;0.60;;;14.00;99.90;;;;;;4939230;29;20209;-73
2021/10/21 09:32:56;;;;;;;2.37;0.33;;;14.00;99.90;;;;;;4939050;29;20216;-73
2021/10/21 09:35:25;;;;;;;3.57;1.10;;;14.00;99.90;;;;;;4938946;29;20263;-72
2021/10/21 09:37:55;;;;;;;4.40;0.73;;;14.00;99.90;;;;;;4938964;29;20208;-72
2021/10/21 09:40:26;;;;;;;8.03;0.70;;;13.90;99.90;;;;;;4938939;29;20243;-71
2021/10/21 09:42:58;;;;;;;5.20;0.60;;;14.00;99.90;;;;;;4938801;29;20272;-74
2021/10/21 09:45:29;;;;;;;1.87;0.70;;;14.00;99.90;;;;;;4939036;29;20264;-71
2021/10/21 09:47:57;;;;;;;2.60;0.43;;;13.90;99.90;;;;;;4938914;29;20211;-72
2021/10/21 09:50:27;;;;;;;2.63;0.60;;;13.90;99.90;;;;;;4939212;29;20571;-72
2021/10/21 09:53:08;;;;;;;5.23;0.50;;;13.90;99.90;;;;;;4938675;29;20205;-73
2021/10/21 09:55:37;;;;;;;2.43;0.70;;;14.30;99.90;;;;;;4938638;29;20282;-71
2021/10/21 09:58:05;;;;;;;8.40;0.60;;;14.60;99.90;;;;;;4938729;29;20208;-72
2021/10/21 10:00:36;;;;;;;2.43;0.43;;;14.70;99.90;;;;;;4938627;29;20209;-72
2021/10/21 10:03:13;;;;;;;2.73;0.50;;;14.70;99.90;;;;;;4938393;29;20263;-72
2021/10/21 10:05:42;;;;;;;4.07;0.60;;;14.40;99.90;;;;;;4938396;29;20653;-71
2021/10/21 10:08:10;;;;;;;3.43;0.50;;;13.90;99.90;;;;;;4938344;29;20213;-71
2021/10/21 10:10:38;;;;;;;3.40;0.50;;;13.80;99.90;;;;;;4938297;29;20213;-71
2021/10/21 10:13:05;;;;;;;1.90;0.57;;;13.70;99.90;;;;;;4938292;29;20215;-73
2021/10/21 10:15:34;;;;;;;3.93;0.40;;;13.50;99.90;;;;;;4938441;29;20235;-72
2021/10/21 10:18:01;;;;;;;6.03;0.70;;;13.30;99.90;;;;;;4938291;29;20220;-72
2021/10/21 10:20:29;;;;;;;2.23;0.57;;;13.10;99.90;;;;;;4937882;29;20930;-71
2021/10/21 10:22:57;;;;;;;3.77;0.53;;;12.90;99.90;;;;;;4955011;29;20327;-72
2021/10/21 10:25:24;;;;;;;3.83;0.70;;;12.80;99.90;;;;;;4943845;29;20779;-73
2021/10/21 10:27:56;;;;;;;1.50;0.50;;;12.60;99.90;;;;;;4937727;29;20212;-73
2021/10/21 10:30:56;;;;;;;2.60;0.90;;;12.40;99.90;;;;;;4942878;29;20215;-74
2021/10/21 10:33:40;;;;;;;3.60;0.67;;;12.40;99.90;;;;;;4897502;29;20214;-72
2021/10/21 10:36:28;;;;;;;2.03;0.53;;;12.40;99.90;;;;;;4951298;28;20242;-75
2021/10/21 10:38:56;;;;;;;7.43;0.90;;;12.40;99.90;;;;;;4956221;28;20218;-71
2021/10/21 10:41:47;;;;;;;2.10;0.53;;;12.40;99.90;;;;;;4956979;29;20563;-76
2021/10/21 10:44:53;;;;;;;0.70;0.27;;;12.40;99.90;;;;;;4957086;29;20239;-73
2021/10/21 10:47:42;;;;;;;2.57;0.47;;;12.30;99.90;;;;;;4956773;29;20216;-73
2021/10/21 10:50:13;;;;;;;0.87;0.50;;;12.20;99.90;;;;;;4957047;29;20288;-72
2021/10/21 10:52:46;;;;;;;1.37;0.40;;;12.20;99.90;;;;;;4956811;29;20663;-72
2021/10/21 10:55:17;;;;;;;1.17;0.30;;;12.20;99.90;;;;;;4956613;28;20232;-72
2021/10/21 10:58:10;;;;;;;2.57;0.47;;;12.30;99.90;;;;;;4956947;29;20208;-70
2021/10/21 11:00:47;;;;;;;2.67;0.50;;;12.20;99.90;;;;;;4956990;29;20236;-73
2021/10/21 11:03:30;;;;;;;4.83;0.60;;;12.20;99.90;;;;;;4956768;28;20267;-71
2021/10/21 11:05:58;;;;;;;2.10;0.40;;;12.20;99.90;;;;;;4956605;29;20663;-70
2021/10/21 11:08:56;;;;;;;2.40;0.40;;;12.10;99.90;;;;;;4956429;29;20243;-70
2021/10/21 11:11:43;;;;;;;2.20;0.63;;;12.20;99.90;;;;;;4956348;29;20204;-71
2021/10/21 11:14:12;;;;;;;2.00;0.47;;;12.40;99.90;;;;;;4956349;29;20235;-69
2021/10/21 11:16:44;;;;;;;2.80;0.70;;;12.50;99.90;;;;;;4956759;29;20214;-71
2021/10/21 11:19:14;;;;;;;1.97;1.07;;;12.50;99.90;;;;;;4956346;29;20222;-70
2021/10/21 11:22:02;;;;;;;2.73;0.40;;;12.60;99.90;;;;;;4956248;29;20667;-72
2021/10/21 11:24:59;;;;;;;1.60;0.50;;;12.80;99.90;;;;;;4951325;28;20276;-72
2021/10/21 11:27:28;;;;;;;0.97;0.47;;;12.90;99.90;;;;;;4956453;28;20259;-73
2021/10/21 11:30:01;;;;;;;3.80;0.40;;;12.90;99.90;;;;;;4951658;29;20212;-75
2021/10/21 11:32:32;;;;;;;1.33;0.40;;;12.90;99.90;;;;;;4954987;29;20216;-72
2021/10/21 11:35:00;;;;;;;0.63;0.40;;;13.00;99.90;;;;;;4954810;29;20232;-72
2021/10/21 11:37:35;;;;;;;2.37;0.40;;;12.80;99.90;;;;;;4954811;29;20207;-72
2021/10/21 11:40:03;;;;;;;1.17;0.43;;;12.50;99.90;;;;;;4954675;29;20207;-79
2021/10/21 11:42:30;;;;;;;4.60;0.40;;;12.30;99.90;;;;;;4955184;29;20236;-74
2021/10/21 11:45:03;;;;;;;0.90;0.40;;;12.10;99.90;;;;;;4954705;28;20236;-77
2021/10/21 11:47:30;;;;;;;4.13;0.60;;;11.90;99.90;;;;;;4954415;29;20656;-74
2021/10/21 11:49:58;;;;;;;0.67;0.40;;;12.00;99.90;;;;;;4953480;28;20667;-83
2021/10/21 11:52:36;;;;;;;3.23;0.50;;;12.20;99.90;;;;;;4954440;29;20207;-74
2021/10/21 11:55:04;;;;;;;1.87;0.90;;;12.30;99.90;;;;;;4954236;28;20232;-79
2021/10/21 11:57:32;;;;;;;3.70;1.13;;;12.20;99.90;;;;;;4954829;28;20231;-72
2021/10/21 11:59:59;;;;;;;0.97;0.50;;;12.20;99.90;;;;;;4954451;29;20212;-72
2021/10/21 12:02:30;;;;;;;7.10;0.80;;;12.20;99.90;;;;;;4954506;29;20204;-73
2021/10/21 12:04:56;;;;;;;1.23;0.43;;;12.20;99.90;;;;;;4954333;28;20310;-73
2021/10/21 12:07:23;;;;;;;2.03;0.60;;;12.10;99.90;;;;;;4954319;29;20211;-72
2021/10/21 12:09:52;;;;;;;1.80;0.40;;;12.20;99.90;;;;;;4955012;28;20208;-75
2021/10/21 12:12:19;;;;;;;1.27;0.30;;;12.20;99.90;;;;;;4955435;29;20234;-72
2021/10/21 12:14:47;;;;;;;2.40;0.50;;;12.30;99.90;;;;;;4955348;28;20228;-75
2021/10/21 12:17:14;;;;;;;2.93;0.70;;;12.30;99.90;;;;;;4955426;29;20207;-76
2021/10/21 12:19:52;;;;;;;3.07;0.50;;;12.40;99.90;;;;;;4955251;29;20235;-75
2021/10/21 12:22:27;;;;;;;2.20;0.63;;;12.40;99.90;;;;;;4955406;29;20239;-72
2021/10/21 12:24:56;;;;;;;1.83;0.50;;;12.40;99.90;;;;;;4955135;28;20598;-70
2021/10/21 12:27:25;;;;;;;3.23;0.40;;;12.40;99.90;;;;;;4955163;29;20208;-69
2021/10/21 12:30:01;;;;;;;2.20;0.30;;;12.50;99.90;;;;;;4955398;29;20214;-75
2021/10/21 12:32:28;;;;;;;1.40;0.30;;;12.50;99.90;;;;;;4955357;29;20208;-72
2021/10/21 12:35:04;;;;;;;3.50;0.37;;;12.40;99.90;;;;;;4954603;28;20706;-71
2021/10/21 12:37:39;;;;;;;2.77;0.40;;;12.30;99.90;;;;;;4954698;29;20271;-73
2021/10/21 12:40:20;;;;;;;2.00;0.30;;;12.30;99.90;;;;;;4955280;29;20254;-71
2021/10/21 12:42:47;;;;;;;3.30;0.37;;;12.30;99.90;;;;;;4955136;28;20267;-72
2021/10/21 12:45:21;;;;;;;1.73;0.20;;;12.20;99.90;;;;;;4954856;28;20234;-73
2021/10/21 12:47:48;;;;;;;4.27;0.60;;;12.20;99.90;;;;;;4954961;29;20214;-73
2021/10/21 12:50:16;;;;;;;1.53;0.50;;;12.30;99.90;;;;;;4954691;29;20659;-74
2021/10/21 12:52:44;;;;;;;4.60;0.43;;;12.30;99.90;;;;;;4955186;29;20212;-72
2021/10/21 12:55:16;;;;;;;2.13;0.30;;;12.40;99.90;;;;;;4954799;28;20227;-75
2021/10/21 12:57:46;;;;;;;0.40;0.10;;;12.50;99.90;;;;;;4955038;29;20212;-76
2021/10/21 13:00:14;;;;;;;3.33;0.60;;;12.40;99.90;;;;;;4954596;29;20207;-72
2021/10/21 13:02:41;;;;;;;2.20;0.27;;;12.50;99.90;;;;;;4957429;28;20752;-71
2021/10/21 13:05:07;;;;;;;1.37;0.30;;;12.50;99.90;;;;;;4958738;28;20238;-73
2021/10/21 13:07:34;;;;;;;0.23;0.10;;;12.50;99.90;;;;;;4958726;29;20208;-74
2021/10/21 13:10:04;;;;;;;3.13;0.30;;;12.60;99.90;;;;;;4958669;29;20208;-74
2021/10/21 13:12:32;;;;;;;2.63;0.43;;;12.70;99.90;;;;;;4958751;29;20214;-73
2021/10/21 13:14:59;;;;;;;0.70;0.20;;;12.70;99.90;;;;;;4959127;28;20227;-73
2021/10/21 13:17:26;;;;;;;1.33;0.67;;;12.70;99.90;;;;;;4958730;29;20292;-73
2021/10/21 13:19:52;;;;;;;4.53;0.40;;;12.50;99.90;;;;;;4958349;29;20675;-74
2021/10/21 13:22:19;;;;;;;0.53;0.30;;;12.40;99.90;;;;;;4959290;29;20207;-77
2021/10/21 13:24:46;;;;;;;1.40;0.50;;;12.30;99.90;;;;;;4958494;28;20246;-73
2021/10/21 13:27:15;;;;;;;3.37;0.30;;;12.20;99.90;;;;;;4958321;29;20212;-71
2021/10/21 13:29:43;;;;;;;2.00;0.47;;;12.10;99.90;;;;;;4958464;29;20214;-71
2021/10/21 13:32:10;;;;;;;1.00;0.30;;;12.20;99.90;;;;;;4958594;29;20298;-70
2021/10/21 13:34:37;;;;;;;1.03;0.30;;;12.20;99.90;;;;;;4958191;28;20228;-69
2021/10/21 13:37:08;;;;;;;1.20;0.27;;;12.10;99.90;;;;;;4958257;29;20212;-72
2021/10/21 13:39:39;;;;;;;1.00;0.40;;;12.00;99.90;;;;;;4958297;29;20208;-72
2021/10/21 13:42:06;;;;;;;2.67;0.30;;;11.80;99.90;;;;;;4958135;29;20208;-72
2021/10/21 13:44:33;;;;;;;0.30;0.20;;;11.70;99.90;;;;;;4957852;28;20243;-73
2021/10/21 13:47:03;;;;;;;0.53;0.30;;;11.70;99.90;;;;;;4958124;29;20215;-73
2021/10/21 13:49:30;;;;;;;1.60;0.20;;;11.70;99.90;;;;;;4957968;28;20204;-73
2021/10/21 13:51:57;;;;;;;0.97;0.40;;;11.70;99.90;;;;;;4957944;29;20219;-74
2021/10/21 13:54:24;;;;;;;0.30;0.20;;;11.60;99.90;;;;;;4957908;28;20247;-72
2021/10/21 13:56:51;;;;;;;0.60;0.20;;;11.70;99.90;;;;;;4957675;29;20663;-74
2021/10/21 13:59:18;;;;;;;3.53;0.60;;;11.70;99.90;;;;;;4958077;29;20219;-74
2021/10/21 14:01:45;;;;;;;1.03;0.20;;;11.60;99.90;;;;;;4958000;28;20208;-75
2021/10/21 14:04:13;;;;;;;4.33;0.20;;;11.60;99.90;;;;;;4957513;28;20239;-73
2021/10/21 14:06:41;;;;;;;3.40;0.30;;;11.50;99.90;;;;;;4957499;29;20211;-74
2021/10/21 14:09:07;;;;;;;2.63;0.20;;;11.60;99.90;;;;;;4957743;29;20239;-73
2021/10/21 14:11:34;;;;;;;2.97;0.50;;;11.60;99.90;;;;;;4957893;29;20214;-73
2021/10/21 14:14:05;;;;;;;1.20;0.40;;;11.80;99.90;;;;;;4956796;28;20250;-75
2021/10/21 14:16:34;;;;;;;1.03;0.30;;;11.90;99.90;;;;;;4957769;29;20208;-73
2021/10/21 14:19:01;;;;;;;1.93;0.40;;;11.90;99.90;;;;;;4957226;29;20579;-74
2021/10/21 14:21:29;;;;;;;1.40;0.50;;;12.00;99.90;;;;;;4957332;29;20208;-71
2021/10/21 14:23:56;;;;;;;2.57;0.40;;;12.10;99.90;;;;;;4957253;28;20239;-73
2021/10/21 14:26:23;;;;;;;1.33;0.30;;;12.10;99.90;;;;;;4957612;29;20627;-73
2021/10/21 14:28:50;;;;;;;4.43;0.40;;;12.10;99.90;;;;;;4957646;28;20679;-72
2021/10/21 14:31:17;;;;;;;2.33;0.50;;;12.10;99.90;;;;;;4957135;29;20204;-74
2021/10/21 14:33:44;;;;;;;1.23;0.30;;;12.20;99.90;;;;;;4957131;28;20327;-72
2021/10/21 14:36:11;;;;;;;1.30;0.50;;;12.20;99.90;;;;;;4957335;29;20259;-70
2021/10/21 14:38:39;;;;;;;1.70;0.50;;;12.20;99.90;;;;;;4957468;29;20218;-72
2021/10/21 14:41:06;;;;;;;1.87;0.50;;;12.20;99.90;;;;;;4957168;29;20212;-73
2021/10/21 14:43:33;;;;;;;4.30;0.50;;;12.30;99.90;;;;;;4956921;28;20234;-72
2021/10/21 14:46:00;;;;;;;1.67;1.13;;;12.20;99.90;;;;;;4957141;29;20208;-72
2021/10/21 14:48:27;;;;;;;4.00;0.70;;;12.30;99.90;;;;;;4956739;29;20302;-74
2021/10/21 14:50:53;;;;;;;3.63;0.67;;;12.30;99.90;;;;;;4956905;29;20693;-72
2021/10/21 14:53:20;;;;;;;0.40;0.20;;;12.20;99.90;;;;;;4957080;28;20204;-74
2021/10/21 14:55:48;;;;;;;1.53;0.40;;;12.00;99.90;;;;;;4956768;29;20204;-70
2021/10/21 14:58:15;;;;;;;3.07;0.40;;;11.80;99.90;;;;;;4956975;29;20208;-71
2021/10/21 15:00:42;;;;;;;1.47;0.37;;;11.70;99.90;;;;;;4956908;29;20212;-70
2021/10/21 15:03:09;;;;;;;1.90;0.53;;;11.60;99.90;;;;;;4956638;29;20212;-72
2021/10/21 15:05:43;;;;;;;2.20;0.40;;;11.50;99.90;;;;;;4956280;28;20234;-72
2021/10/21 15:08:26;;;;;;;1.63;0.40;;;11.30;99.90;;;;;;4956524;29;20259;-72
2021/10/21 15:11:14;;;;;;;4.33;0.60;;;11.30;99.90;;;;;;4957960;29;20219;-73
2021/10/21 15:24:42;;;;;;;1.27;0.30;;;11.50;99.90;;;;;;4956534;28;20340;-74
2021/10/21 15:27:10;;;;;;;5.07;0.40;;;11.50;99.90;;;;;;4956274;29;20208;-74
2021/10/21 15:29:37;;;;;;;1.70;0.60;;;11.40;99.90;;;;;;4956870;29;20234;-72
2021/10/21 15:32:05;;;;;;;2.90;0.40;;;11.50;99.90;;;;;;4956907;29;20211;-73
2021/10/21 15:34:32;;;;;;;2.50;0.67;;;11.40;99.90;;;;;;4956113;28;20232;-73
2021/10/21 15:36:59;;;;;;;1.73;0.43;;;11.20;99.90;;;;;;4956254;28;20244;-74
2021/10/21 15:39:35;;;;;;;3.73;0.80;;;11.20;99.90;;;;;;4956340;29;20212;-72
2021/10/21 15:42:01;;;;;;;4.23;1.70;;;11.10;99.90;;;;;;4956089;29;20239;-73
2021/10/21 15:44:57;;;;;;;4.83;0.77;;;11.00;99.90;;;;;;4955740;28;20250;-74
2021/10/21 15:47:28;;;;;;;3.50;0.87;;;11.10;99.90;;;;;;4956157;28;20267;-74
2021/10/21 15:50:01;;;;;;;3.47;0.80;;;11.10;99.90;;;;;;4955887;28;20207;-74
2021/10/21 16:09:29;;;;;;;2.70;0.70;;;10.90;99.90;;;;;;4895986;29;20297;-70
2021/10/21 16:14:45;;;;;;;5.87;2.10;;;10.90;99.90;;;;;;4949782;29;20227;-74
2021/10/21 16:17:16;;;;;;;8.27;2.00;;;11.00;99.90;;;;;;4955047;28;20204;-75
2021/10/21 16:19:43;;;;;;;5.90;1.37;;;11.00;99.90;;;;;;4954971;29;20215;-76
2021/10/21 16:22:20;;;;;;;2.43;1.03;;;10.90;99.90;;;;;;4955429;29;20204;-75
2021/10/21 16:24:50;;;;;;;3.23;0.73;;;10.90;99.90;;;;;;4955177;29;20244;-75
2021/10/21 16:27:21;;;;;;;4.90;1.40;;;10.80;99.90;;;;;;4955112;29;20304;-73
2021/10/21 16:29:49;;;;;;;5.37;0.97;;;10.80;99.90;;;;;;4955400;29;20216;-74
2021/10/21 16:32:18;;;;;;;6.90;1.10;;;10.70;99.90;;;;;;4954859;29;20208;-76
2021/10/21 16:34:45;;;;;;;4.53;0.97;;;10.80;99.90;;;;;;4955166;28;20254;-76
2021/10/21 16:37:15;;;;;;;3.13;0.97;;;10.60;99.90;;;;;;4954469;28;20218;-75
2021/10/21 16:39:42;;;;;;;6.30;1.07;;;10.60;99.90;;;;;;4954893;29;20674;-74
2021/10/21 16:42:11;;;;;;;3.33;0.70;;;10.70;99.90;;;;;;4954585;29;20208;-74
2021/10/21 16:44:38;;;;;;;4.43;1.37;;;10.70;99.90;;;;;;4954691;29;20250;-74
2021/10/21 16:47:05;;;;;;;3.30;1.30;;;10.70;99.90;;;;;;4954885;29;20220;-73
2021/10/21 16:49:35;;;;;;;4.37;1.57;;;10.70;99.90;;;;;;4954751;29;20670;-73
2021/10/21 16:52:02;;;;;;;3.53;1.33;;;10.80;99.90;;;;;;4954996;29;20239;-75
2021/10/21 16:54:30;;;;;;;6.60;1.20;;;10.70;99.90;;;;;;4954826;28;20631;-72
2021/10/21 16:56:57;;;;;;;3.90;1.03;;;10.60;99.90;;;;;;4954223;29;20247;-74
2021/10/21 16:59:25;;;;;;;5.83;0.97;;;10.40;99.90;;;;;;4955039;29;20211;-73
2021/10/21 17:01:52;;;;;;;3.20;0.80;;;10.30;99.90;;;;;;4954574;29;20212;-74
2021/10/21 17:04:18;;;;;;;5.17;0.90;;;10.30;99.90;;;;;;4954483;28;20250;-72
2021/10/21 17:06:47;;;;;;;6.17;1.00;;;10.20;99.90;;;;;;4954725;29;20574;-74
2021/10/21 17:09:13;;;;;;;5.93;0.87;;;10.20;99.90;;;;;;4954542;29;20763;-73
2021/10/21 17:11:41;;;;;;;5.13;1.33;;;10.20;99.90;;;;;;4954839;29;20208;-71
2021/10/21 17:14:08;;;;;;;6.40;1.20;;;10.20;99.90;;;;;;4955128;29;20250;-78
2021/10/21 17:16:39;;;;;;;4.17;2.07;;;10.20;99.90;;;;;;4954714;29;20214;-70
2021/10/21 17:19:06;;;;;;;5.23;2.03;;;10.30;99.90;;;;;;4954400;29;20306;-75
2021/10/21 17:21:33;;;;;;;9.13;1.53;;;10.40;99.90;;;;;;4954231;29;20733;-75
2021/10/21 17:24:02;;;;;;;5.27;1.73;;;10.40;99.90;;;;;;4950917;28;20528;-72
2021/10/21 17:26:29;;;;;;;7.47;1.43;;;10.40;99.90;;;;;;4954816;29;20212;-73
2021/10/21 17:28:56;;;;;;;6.70;0.90;;;10.40;99.90;;;;;;4954545;29;20218;-73
2021/10/21 17:31:23;;;;;;;5.90;1.37;;;10.30;99.90;;;;;;4954750;29;20218;-71
2021/10/21 17:33:50;;;;;;;6.83;1.80;;;10.20;99.90;;;;;;4953865;28;20782;-72
2021/10/21 17:36:17;;;;;;;1.97;0.80;;;10.20;99.90;;;;;;4954591;28;20212;-72
2021/10/21 17:38:44;;;;;;;4.93;0.83;;;10.10;99.90;;;;;;4954426;29;20683;-70
2021/10/21 17:41:12;;;;;;;5.87;1.20;;;10.10;99.90;;;;;;4954267;29;20214;-70
2021/10/21 17:43:41;;;;;;;9.43;1.67;;;10.20;99.90;;;;;;4954096;29;20672;-69
2021/10/21 17:46:09;;;;;;;2.67;0.80;;;10.10;99.90;;;;;;4954249;29;20773;-69
2021/10/21 17:48:36;;;;;;;7.77;1.03;;;10.10;99.90;;;;;;4955045;28;20571;-73
2021/10/21 17:51:05;;;;;;;3.73;1.00;;;10.10;99.90;;;;;;4957859;29;20208;-73
2021/10/21 17:53:32;;;;;;;3.30;1.10;;;10.10;99.90;;;;;;4958088;29;20210;-70
2021/10/21 17:55:59;;;;;;;8.87;2.27;;;10.00;99.90;;;;;;4957898;29;20204;-73
2021/10/21 17:58:27;;;;;;;5.80;1.43;;;9.90;99.90;;;;;;4957342;29;20238;-71
2021/10/21 18:00:55;;;;;;;5.33;1.20;;;9.80;99.90;;;;;;4957529;28;20204;-70
2021/10/21 18:03:22;;;;;;;6.20;2.40;;;9.80;99.90;;;;;;4957527;29;20212;-73
2021/10/21 18:05:49;;;;;;;6.73;0.80;;;9.80;99.90;;;;;;4957791;28;20236;-72
2021/10/21 18:08:16;;;;;;;4.40;0.80;;;9.70;99.90;;;;;;4957452;29;20730;-73
2021/10/21 18:10:43;;;;;;;5.23;1.77;;;9.70;99.90;;;;;;4957328;29;20702;-71
2021/10/21 18:13:10;;;;;;;7.63;1.40;;;9.60;99.90;;;;;;4957410;29;20208;-73
2021/10/21 18:15:39;;;;;;;7.80;1.10;;;9.60;99.90;;;;;;4957129;28;20606;-73
2021/10/21 18:18:06;;;;;;;2.77;1.37;;;9.70;99.90;;;;;;4956346;29;20216;-72
2021/10/21 18:20:33;;;;;;;3.93;1.37;;;9.70;99.90;;;;;;4956026;29;20268;-74
2021/10/21 18:23:00;;;;;;;5.73;1.87;;;9.60;99.90;;;;;;4957654;29;20204;-74
2021/10/21 18:25:27;;;;;;;4.77;1.40;;;9.60;99.90;;;;;;4957374;28;20250;-75
2021/10/21 18:27:54;;;;;;;7.43;1.20;;;9.50;99.90;;;;;;4957339;28;20240;-74
2021/10/21 18:30:21;;;;;;;4.67;1.23;;;9.40;99.90;;;;;;4957150;29;20209;-74
2021/10/21 18:32:50;;;;;;;5.47;1.20;;;9.40;99.90;;;;;;4957303;29;20327;-75
2021/10/21 18:35:17;;;;;;;2.97;1.60;;;9.40;99.90;;;;;;4957069;29;20244;-74
2021/10/21 18:37:44;;;;;;;4.60;1.43;;;9.40;99.90;;;;;;4941579;29;20208;-72
2021/10/21 18:40:12;;;;;;;6.70;1.63;;;9.40;99.90;;;;;;4940927;29;20203;-73
2021/10/21 18:42:39;;;;;;;6.60;1.57;;;9.40;99.90;;;;;;4957316;29;20208;-73
2021/10/21 18:45:07;;;;;;;4.40;1.50;;;9.20;99.90;;;;;;4956625;28;20246;-72
2021/10/21 18:47:36;;;;;;;7.13;2.33;;;9.10;99.90;;;;;;4956947;28;21109;-72
2021/10/21 18:50:05;;;;;;;6.03;1.57;;;9.10;99.90;;;;;;4956899;29;20215;-72
2021/10/21 18:52:32;;;;;;;4.10;1.63;;;9.10;99.90;;;;;;4956741;29;20215;-73
2021/10/21 18:54:59;;;;;;;4.47;1.30;;;9.10;99.90;;;;;;4956852;29;20224;-73
2021/10/21 18:57:25;;;;;;;8.93;1.60;;;9.00;99.90;;;;;;4957004;29;20208;-72
2021/10/21 18:59:52;;;;;;;9.03;1.73;;;8.90;99.90;;;;;;4956024;28;20227;-72
2021/10/21 19:02:19;;;;;;;4.53;1.77;;;8.90;99.90;;;;;;4956593;29;20726;-72
2021/10/21 19:04:46;;;;;;;6.93;1.93;;;8.90;99.90;;;;;;4956210;29;20643;-71
2021/10/21 19:07:15;;;;;;;6.73;1.67;;;8.90;99.90;;;;;;4956477;29;20212;-71
2021/10/21 19:09:42;;;;;;;7.10;1.60;;;8.80;99.90;;;;;;4956433;29;20220;-71
2021/10/21 19:12:09;;;;;;;8.97;2.03;;;8.80;99.90;;;;;;4940608;29;20568;-72
2021/10/21 19:14:36;;;;;;;7.53;2.50;;;8.90;99.90;;;;;;4968660;23;20239;-74
2021/10/21 19:17:04;;;;;;;36.40;11.33;;;8.90;99.90;;;;;;4975165;28;20204;-74
2021/10/21 19:19:33;;;;;;;19.63;5.80;;;8.90;99.90;;;;;;4974843;28;20203;-73
2021/10/21 19:22:02;;;;;;;11.03;3.10;;;8.90;99.90;;;;;;4974836;28;20663;-72
2021/10/21 19:24:30;;;;;;;9.40;2.40;;;8.90;99.90;;;;;;4965922;28;20275;-74
2021/10/21 19:26:57;;;;;;;7.43;2.30;;;8.80;99.90;;;;;;4953177;29;20207;-76
2021/10/21 19:29:24;;;;;;;8.83;2.30;;;8.90;99.90;;;;;;4941512;29;20743;-72
2021/10/21 19:31:51;;;;;;;6.93;2.10;;;8.80;99.90;;;;;;4937036;29;20329;-72
2021/10/21 19:34:18;;;;;;;10.70;2.07;;;8.80;99.90;;;;;;4936441;29;20315;-76
2021/10/21 19:36:45;;;;;;;9.53;2.13;;;8.70;99.90;;;;;;4936883;29;20234;-69
2021/10/21 19:39:12;;;;;;;6.73;2.13;;;8.70;99.90;;;;;;4936800;29;20238;-75
2021/10/21 19:41:40;;;;;;;4.47;1.77;;;8.70;99.90;;;;;;4936197;29;20219;-74
2021/10/21 19:44:07;;;;;;;7.20;1.90;;;8.60;99.90;;;;;;4937020;29;20231;-71
2021/10/21 19:46:34;;;;;;;6.30;2.60;;;8.60;99.90;;;;;;4936899;29;20246;-71
2021/10/21 19:49:00;;;;;;;6.10;1.97;;;8.50;99.90;;;;;;4936768;29;20209;-75
2021/10/21 19:51:28;;;;;;;9.43;2.60;;;8.60;99.90;;;;;;4936660;29;20213;-72
2021/10/21 19:53:55;;;;;;;5.57;2.20;;;8.60;99.90;;;;;;4936723;29;20604;-72
2021/10/21 19:56:22;;;;;;;12.60;2.47;;;8.60;99.90;;;;;;4936441;29;20205;-75
2021/10/21 19:58:50;;;;;;;8.10;2.80;;;8.70;99.90;;;;;;4936462;29;20215;-76
2021/10/21 20:01:20;;;;;;;8.00;2.97;;;8.80;99.90;;;;;;4936436;29;20668;-75
2021/10/21 20:03:47;;;;;;;4.90;2.20;;;8.80;99.90;;;;;;4936516;29;20231;-71
2021/10/21 20:06:13;;;;;;;5.40;1.80;;;8.90;99.90;;;;;;4936569;29;20240;-74
2021/10/21 20:08:40;;;;;;;10.10;2.13;;;8.90;99.90;;;;;;4936243;29;20660;-75
2021/10/21 20:11:08;;;;;;;6.07;1.73;;;8.90;99.90;;;;;;4935604;29;20657;-76
2021/10/21 20:13:37;;;;;;;10.40;2.67;;;9.00;99.90;;;;;;4936280;29;20215;-76
2021/10/21 20:16:05;;;;;;;5.47;2.10;;;9.00;99.90;;;;;;4936203;29;20221;-73
2021/10/21 20:18:33;;;;;;;9.13;2.20;;;9.00;99.90;;;;;;4936338;29;20219;-71
2021/10/21 20:21:00;;;;;;;6.53;2.30;;;9.00;99.90;;;;;;4936481;29;20239;-75
2021/10/21 20:23:27;;;;;;;6.70;2.43;;;9.10;99.90;;;;;;4935995;29;20572;-76
2021/10/21 20:25:54;;;;;;;5.77;2.37;;;9.10;99.90;;;;;;4936115;29;20703;-75
2021/10/21 20:28:21;;;;;;;3.77;1.70;;;9.00;99.90;;;;;;4936024;29;20209;-74
2021/10/21 20:30:48;;;;;;;8.90;1.93;;;9.00;99.90;;;;;;4936107;29;20208;-75
2021/10/21 20:33:16;;;;;;;4.80;1.80;;;9.00;99.90;;;;;;4935970;29;20209;-76
2021/10/21 20:35:44;;;;;;;3.67;1.53;;;8.90;99.90;;;;;;4935795;29;20722;-76
2021/10/21 20:38:11;;;;;;;6.77;2.00;;;8.80;99.90;;;;;;4935841;29;20287;-76
2021/10/21 20:40:38;;;;;;;6.80;2.03;;;8.80;99.90;;;;;;4935828;29;20227;-70
2021/10/21 20:43:05;;;;;;;5.93;1.93;;;8.80;99.90;;;;;;4935920;29;20205;-75
2021/10/21 20:45:32;;;;;;;7.70;1.70;;;8.70;99.90;;;;;;4935332;29;20232;-75